sensor_id;sensor_type;location;lat;lon;timestamp;temperature;humidity
5828;DHT22;42583;50.240;8.444;2023-05-10T00:12:51;12.10;99.90
5828;DHT22;42583;50.240;8.444;2023-05-10T00:27:51;12.10;99.90
5828;DHT22;42583;50.240;8.444;2023-05-10T00:42:52;11.90;99.90
5828;DHT22;42583;50.240;8.444;2023-05-10T00:57:53;11.70;99.90
5828;DHT22;42583;50.240;8.444;2023-05-10T01:12:54;11.60;99.90
5828;DHT22;42583;50.240;8.444;2023-05-10T01:28:07;11.60;99.90
5828;DHT22;42583;50.240;8.444;2023-05-10T01:43:19;11.50;99.90
5828;DHT22;42583;50.240;8.444;2023-05-10T01:58:29;11.40;99.90
5828;DHT22;42583;50.240;8.444;2023-05-10T02:13:34;11.30;99.90
5828;DHT22;42583;50.240;8.444;2023-05-10T02:28:36;11.30;99.90
5828;DHT22;42583;50.240;8.444;2023-05-10T02:43:39;11.20;99.90
5828;DHT22;42583;50.240;8.444;2023-05-10T02:58:41;11.10;99.90
5828;DHT22;42583;50.240;8.444;2023-05-10T03:28:55;11.00;99.90
5828;DHT22;42583;50.240;8.444;2023-05-10T03:43:59;11.00;99.90
5828;DHT22;42583;50.240;8.444;2023-05-10T03:58:59;11.00;99.90
5828;DHT22;42583;50.240;8.444;2023-05-10T04:14:00;10.90;99.90
5828;DHT22;42583;50.240;8.444;2023-05-10T04:29:00;10.90;99.90
5828;DHT22;42583;50.240;8.444;2023-05-10T04:44:01;10.80;99.90
5828;DHT22;42583;50.240;8.444;2023-05-10T04:59:02;10.90;99.90
5828;DHT22;42583;50.240;8.444;2023-05-10T05:14:02;11.00;99.90
5828;DHT22;42583;50.240;8.444;2023-05-10T05:29:03;11.00;99.90
5828;DHT22;42583;50.240;8.444;2023-05-10T05:44:04;11.00;99.90
5828;DHT22;42583;50.240;8.444;2023-05-10T05:59:04;11.20;99.90
5828;DHT22;42583;50.240;8.444;2023-05-10T06:14:05;11.20;99.90
5828;DHT22;42583;50.240;8.444;2023-05-10T06:29:07;11.30;99.90
5828;DHT22;42583;50.240;8.444;2023-05-10T06:44:08;11.50;99.90
5828;DHT22;42583;50.240;8.444;2023-05-10T06:59:08;11.50;99.90
5828;DHT22;42583;50.240;8.444;2023-05-10T07:14:09;11.60;99.90
5828;DHT22;42583;50.240;8.444;2023-05-10T07:29:09;11.80;99.90
5828;DHT22;42583;50.240;8.444;2023-05-10T07:44:10;11.80;99.90
5828;DHT22;42583;50.240;8.444;2023-05-10T07:59:15;11.80;99.90
5828;DHT22;42583;50.240;8.444;2023-05-10T08:14:16;12.20;99.90
5828;DHT22;42583;50.240;8.444;2023-05-10T08:29:17;12.10;99.90
5828;DHT22;42583;50.240;8.444;2023-05-10T08:44:18;11.90;99.90
5828;DHT22;42583;50.240;8.444;2023-05-10T08:59:19;11.90;99.90
5828;DHT22;42583;50.240;8.444;2023-05-10T09:14:20;11.90;99.90
5828;DHT22;42583;50.240;8.444;2023-05-10T09:29:22;12.00;99.90
5828;DHT22;42583;50.240;8.444;2023-05-10T09:44:22;12.20;99.90
5828;DHT22;42583;50.240;8.444;2023-05-10T09:59:25;12.70;99.90
5828;DHT22;42583;50.240;8.444;2023-05-10T10:14:28;13.50;99.90
5828;DHT22;42583;50.240;8.444;2023-05-10T10:29:43;14.20;99.90
5828;DHT22;42583;50.240;8.444;2023-05-10T10:44:47;14.50;99.90
5828;DHT22;42583;50.240;8.444;2023-05-10T10:59:48;13.60;99.90
5828;DHT22;42583;50.240;8.444;2023-05-10T11:14:57;13.10;99.90
5828;DHT22;42583;50.240;8.444;2023-05-10T11:29:58;13.30;99.90
5828;DHT22;42583;50.240;8.444;2023-05-10T11:45:00;12.90;99.90
5828;DHT22;42583;50.240;8.444;2023-05-10T12:00:01;13.20;99.90
5828;DHT22;42583;50.240;8.444;2023-05-10T12:15:05;13.90;99.90
5828;DHT22;42583;50.240;8.444;2023-05-10T12:30:07;14.00;99.90
5828;DHT22;42583;50.240;8.444;2023-05-10T12:45:08;14.30;99.90
5828;DHT22;42583;50.240;8.444;2023-05-10T13:00:09;16.10;99.90
5828;DHT22;42583;50.240;8.444;2023-05-10T13:15:10;17.30;99.90
5828;DHT22;42583;50.240;8.444;2023-05-10T13:30:11;16.60;99.90
5828;DHT22;42583;50.240;8.444;2023-05-10T13:45:12;15.70;99.90
5828;DHT22;42583;50.240;8.444;2023-05-10T14:00:13;14.60;99.90
5828;DHT22;42583;50.240;8.444;2023-05-10T14:15:14;13.70;99.90
5828;DHT22;42583;50.240;8.444;2023-05-10T14:30:15;13.90;99.90
5828;DHT22;42583;50.240;8.444;2023-05-10T14:45:15;15.30;99.90
5828;DHT22;42583;50.240;8.444;2023-05-10T15:00:16;16.60;99.90
5828;DHT22;42583;50.240;8.444;2023-05-10T15:15:19;17.20;99.90
5828;DHT22;42583;50.240;8.444;2023-05-10T15:30:20;17.20;99.90
5828;DHT22;42583;50.240;8.444;2023-05-10T15:45:21;16.90;99.90
5828;DHT22;42583;50.240;8.444;2023-05-10T16:00:22;16.60;99.90
5828;DHT22;42583;50.240;8.444;2023-05-10T16:15:22;16.70;99.90
5828;DHT22;42583;50.240;8.444;2023-05-10T16:30:23;16.70;99.90
5828;DHT22;42583;50.240;8.444;2023-05-10T16:45:26;16.50;99.90
5828;DHT22;42583;50.240;8.444;2023-05-10T17:00:27;15.90;99.90
5828;DHT22;42583;50.240;8.444;2023-05-10T17:15:27;15.40;99.90
5828;DHT22;42583;50.240;8.444;2023-05-10T17:30:28;15.00;99.90
5828;DHT22;42583;50.240;8.444;2023-05-10T17:45:31;14.90;99.90
5828;DHT22;42583;50.240;8.444;2023-05-10T18:00:32;14.70;99.90
5828;DHT22;42583;50.240;8.444;2023-05-10T18:15:33;14.50;99.90
5828;DHT22;42583;50.240;8.444;2023-05-10T18:30:34;14.20;99.90
5828;DHT22;42583;50.240;8.444;2023-05-10T18:45:34;13.90;99.90
5828;DHT22;42583;50.240;8.444;2023-05-10T19:00:35;13.80;99.90
5828;DHT22;42583;50.240;8.444;2023-05-10T19:15:36;13.50;99.90
5828;DHT22;42583;50.240;8.444;2023-05-10T19:30:36;13.40;99.90
5828;DHT22;42583;50.240;8.444;2023-05-10T19:45:37;13.20;99.90
5828;DHT22;42583;50.240;8.444;2023-05-10T20:00:37;12.90;99.90
5828;DHT22;42583;50.240;8.444;2023-05-10T20:15:38;12.60;99.90
5828;DHT22;42583;50.240;8.444;2023-05-10T20:30:38;12.20;99.90
5828;DHT22;42583;50.240;8.444;2023-05-10T20:45:40;11.90;99.90
5828;DHT22;42583;50.240;8.444;2023-05-10T21:00:40;11.70;99.90
5828;DHT22;42583;50.240;8.444;2023-05-10T21:15:41;11.60;99.90
5828;DHT22;42583;50.240;8.444;2023-05-10T21:30:41;11.60;99.90
5828;DHT22;42583;50.240;8.444;2023-05-10T21:45:42;11.60;99.90
5828;DHT22;42583;50.240;8.444;2023-05-10T22:00:42;11.50;99.90
5828;DHT22;42583;50.240;8.444;2023-05-10T22:15:43;11.30;99.90
5828;DHT22;42583;50.240;8.444;2023-05-10T22:30:44;11.20;99.90
5828;DHT22;42583;50.240;8.444;2023-05-10T22:45:44;11.20;99.90
5828;DHT22;42583;50.240;8.444;2023-05-10T23:00:45;11.20;99.90
5828;DHT22;42583;50.240;8.444;2023-05-10T23:15:45;11.20;99.90
5828;DHT22;42583;50.240;8.444;2023-05-10T23:30:46;11.20;99.90
5828;DHT22;42583;50.240;8.444;2023-05-10T23:45:56;11.20;99.90
